Impacts TAF Board INFO
FOR SITUATIONAL AWARENESS. NOT TO BE USED FOR FLIGHT PLANNING PURPOSES.
IDs:

KDTW - Detroit Metro/Wayne, MI, US

Issued at 1301 UTC 25 Feb 2018
Updated at 1319 UTC 25 Feb 2018
Potential Impact None Slight Moderate High
Time1253Z 25/14Z 25/15Z 25/16Z 25/17Z 25/18Z 25/19Z 25/20Z 25/21Z 25/22Z 25/23Z 26/00Z 26/01Z 26/02Z>>
Type OBS PRVL PRVL PRVL PRVL PRVL PRVL PRVL PRVL PRVL PRVL PRVL PRVL PRVL
VIS 10 >6 >6 >6 >6 >6 >6 >6 >6 >6 >6 >6 >6 >6
CIG 200 -- 28 28 28 -- -- -- -- -- -- -- -- --
Cover BKN SCT BKN BKN BKN FEW FEW FEW FEW FEW SKC SKC SKC SKC
FltCat VFR VFR MVFR MVFR MVFR VFR VFR VFR VFR VFR VFR VFR VFR VFR
WX -- -- -- -- -- -- -- -- -- -- -- -- -- --
WDir 260 250 240 240 240 240 240 240 240 240 250 250 250 250
WSpd 20 20 20 20 20 15 15 15 15 15 10 10 10 10
WGst 26 32 30 30 30 25 25 25 25 25 -- -- -- --

Raw TAF
KDTW 251301Z 2513/2618 25020G32KT P6SM SCT025
  FM251500 24020G30KT P6SM BKN028
  FM251800 24015G25KT P6SM FEW035
  FM252300 25010KT P6SM SKC


Raw METAR
KDTW 251253Z 26020G26KT 10SM FEW025 SCT035 BKN200 06/02 A2968 RMK AO2 PK WND 26031/1220 SLP055 T00610017 $
KDTW 251229Z 25020G31KT 10SM SCT025 SCT040 BKN200 07/03 A2965 RMK AO2 PK WND 26031/1220 T00720033 $
KDTW 251210Z 27019G27KT 10SM BKN025 BKN030 OVC040 09/05 A2963 RMK AO2 PK WND 28027/1207 PRESRR T00890050 $
KDTW 251153Z 24022G31KT 10SM SCT030 BKN040 09/06 A2960 RMK AO2 PK WND 22032/1102 PRESRR SLP027 60006 70010 T00940056 10100 20033 53030 $
KDTW 251053Z 22017KT 10SM SCT007 SCT015 BKN060 09/08 A2954 RMK AO2 RAB0957E25 SLP004 P0001 T00890078 $
KDTW 251046Z 22015KT 10SM SCT007 BKN015 BKN060 08/08 A2953 RMK AO2 RAB0957E25 P0001 T00830078 $
KDTW 251031Z 21017KT 8SM BKN005 BKN011 OVC017 08/08 A2952 RMK AO2 RAB0957E25 P0001 T00830078 $

METAR Board
Radar Display
Forecast Discussion

FOR SITUATIONAL AWARENESS. NOT TO BE USED FOR FLIGHT PLANNING PURPOSES.